Time;durP1;ratioP1;P1;durP2;ratioP2;P2;SDS_P1;SDS_P2;PMS_P1;PMS_P2;Temp;Humidity;BMP_temperature;BMP_pressure;BME280_temperature;BME280_humidity;BME280_pressure;Samples;Min_cycle;Max_cycle;Signal;HPM_P1;HPM_P2
2023/12/01 00:01:55;;;;;;;16.15;14.45;;;;;;;;;;5079592;28;20445;-81
2023/12/01 00:04:21;;;;;;;17.00;15.20;;;;;;;;;;5081072;28;20368;-81
2023/12/01 00:06:47;;;;;;;15.57;14.07;;;;;;;;;;5080245;28;20391;-81
2023/12/01 00:09:13;;;;;;;15.73;14.23;;;;;;;;;;5080923;28;20403;-81
2023/12/01 00:11:39;;;;;;;14.20;12.90;;;;;;;;;;5080340;28;20407;-81
2023/12/01 00:14:05;;;;;;;14.80;13.40;;;;;;;;;;5080311;28;20372;-82
2023/12/01 00:16:31;;;;;;;14.77;13.45;;;;;;;;;;5080216;28;20376;-82
2023/12/01 00:18:57;;;;;;;16.52;14.82;;;;;;;;;;5080237;28;20380;-83
2023/12/01 00:21:23;;;;;;;16.03;14.43;;;;;;;;;;5079927;28;20500;-81
2023/12/01 00:23:49;;;;;;;15.73;14.13;;;;;;;;;;5062451;28;20854;-81
2023/12/01 00:26:15;;;;;;;14.40;13.02;;;;;;;;;;5080085;28;20404;-81
2023/12/01 00:28:41;;;;;;;14.82;13.40;;;;;;;;;;5080015;28;20376;-81
2023/12/01 00:31:11;;;;;;;14.75;13.35;;;;;;;;;;5079295;28;20413;-82
2023/12/01 00:33:37;;;;;;;14.60;13.23;;;;;;;;;;5080239;28;20368;-82
2023/12/01 00:36:03;;;;;;;15.20;13.70;;;;;;;;;;5079845;28;20436;-82
2023/12/01 00:38:32;;;;;;;15.13;13.65;;;;;;;;;;5080642;28;20386;-82
2023/12/01 00:40:58;;;;;;;15.13;13.73;;;;;;;;;;5080782;28;20403;-81
2023/12/01 00:43:25;;;;;;;15.73;14.23;;;;;;;;;;5080876;28;20738;-81
2023/12/01 00:45:51;;;;;;;16.30;14.60;;;;;;;;;;5079496;28;20467;-82
2023/12/01 00:48:17;;;;;;;16.20;14.50;;;;;;;;;;5080356;28;20383;-82
2023/12/01 00:50:43;;;;;;;15.73;14.18;;;;;;;;;;5079668;28;20885;-82
2023/12/01 00:53:09;;;;;;;15.60;14.10;;;;;;;;;;5079930;28;20384;-82
2023/12/01 00:55:35;;;;;;;15.15;13.70;;;;;;;;;;5080333;28;20470;-82
2023/12/01 00:58:04;;;;;;;16.17;14.55;;;;;;;;;;5080158;28;20376;-82
2023/12/01 01:00:31;;;;;;;15.68;14.15;;;;;;;;;;5079908;28;20439;-81
2023/12/01 01:02:57;;;;;;;15.02;13.45;;;;;;;;;;5079995;28;20433;-83
2023/12/01 01:05:23;;;;;;;14.87;13.30;;;;;;;;;;5076615;28;20429;-81
2023/12/01 01:07:49;;;;;;;15.45;13.48;;;;;;;;;;5071895;28;20371;-81
2023/12/01 01:10:15;;;;;;;13.30;12.10;;;;;;;;;;5080173;28;20383;-82
2023/12/01 01:12:41;;;;;;;14.48;13.07;;;;;;;;;;5079610;28;20411;-81
2023/12/01 01:15:07;;;;;;;14.30;13.00;;;;;;;;;;5079590;28;20380;-82
2023/12/01 01:17:34;;;;;;;15.10;13.70;;;;;;;;;;5076900;28;20379;-82
2023/12/01 01:20:07;;;;;;;13.73;12.40;;;;;;;;;;5080019;28;20372;-81
2023/12/01 01:22:33;;;;;;;14.63;13.23;;;;;;;;;;5079805;28;20462;-82
2023/12/01 01:24:59;;;;;;;13.23;12.13;;;;;;;;;;5079179;28;20409;-81
2023/12/01 01:27:25;;;;;;;14.07;12.77;;;;;;;;;;5079640;28;20388;-80
2023/12/01 01:29:51;;;;;;;14.20;12.80;;;;;;;;;;5079240;28;20395;-82
2023/12/01 01:32:17;;;;;;;14.25;12.95;;;;;;;;;;5078244;28;20487;-81
2023/12/01 01:34:43;;;;;;;13.82;12.60;;;;;;;;;;5078769;28;20466;-82
2023/12/01 01:37:09;;;;;;;13.90;12.57;;;;;;;;;;5079324;28;20380;-80
2023/12/01 01:39:35;;;;;;;14.48;13.07;;;;;;;;;;5078502;28;20383;-81
2023/12/01 01:42:01;;;;;;;14.07;12.82;;;;;;;;;;5078780;28;20379;-81
2023/12/01 01:44:28;;;;;;;13.93;12.65;;;;;;;;;;5078564;28;20439;-82
2023/12/01 01:46:54;;;;;;;14.98;13.48;;;;;;;;;;5078568;28;20446;-80
2023/12/01 01:49:25;;;;;;;14.93;13.52;;;;;;;;;;5078918;28;20763;-81
2023/12/01 01:51:52;;;;;;;14.20;12.90;;;;;;;;;;5079152;28;20468;-81
2023/12/01 01:54:18;;;;;;;14.50;13.10;;;;;;;;;;5079096;28;20534;-81
2023/12/01 01:56:44;;;;;;;15.00;13.50;;;;;;;;;;5078798;28;20868;-81
2023/12/01 01:59:12;;;;;;;15.07;13.65;;;;;;;;;;5078858;28;20371;-81
2023/12/01 02:01:39;;;;;;;14.70;13.30;;;;;;;;;;5079402;28;20443;-81
2023/12/01 02:04:07;;;;;;;14.27;12.88;;;;;;;;;;5079642;28;20387;-81
2023/12/01 02:06:34;;;;;;;14.77;13.27;;;;;;;;;;5078821;28;20733;-81
2023/12/01 02:09:00;;;;;;;13.38;12.10;;;;;;;;;;5078967;28;20437;-81
2023/12/01 02:11:26;;;;;;;15.05;13.57;;;;;;;;;;5080161;28;20415;-81
2023/12/01 02:13:53;;;;;;;13.63;12.32;;;;;;;;;;5079198;28;20923;-81
2023/12/01 02:16:19;;;;;;;14.13;12.75;;;;;;;;;;5079382;28;20383;-81
2023/12/01 02:18:45;;;;;;;14.05;12.75;;;;;;;;;;5080024;28;20401;-81
2023/12/01 02:21:11;;;;;;;12.80;11.60;;;;;;;;;;5079205;28;20418;-81
2023/12/01 02:23:37;;;;;;;13.82;12.52;;;;;;;;;;5079611;28;20403;-81
2023/12/01 02:26:09;;;;;;;13.40;12.20;;;;;;;;;;5083392;28;20475;-81
2023/12/01 02:28:35;;;;;;;14.13;12.73;;;;;;;;;;5083532;28;20383;-81
2023/12/01 02:31:01;;;;;;;13.75;12.45;;;;;;;;;;5082885;28;20406;-81
2023/12/01 02:33:27;;;;;;;13.02;11.82;;;;;;;;;;5083128;28;20737;-81
2023/12/01 02:35:53;;;;;;;13.07;11.88;;;;;;;;;;5083147;28;20388;-81
2023/12/01 02:38:20;;;;;;;13.15;11.95;;;;;;;;;;5083731;28;20400;-81
2023/12/01 02:40:50;;;;;;;12.43;11.23;;;;;;;;;;5083825;28;20437;-81
2023/12/01 02:43:16;;;;;;;12.93;11.73;;;;;;;;;;5083472;28;20367;-81
2023/12/01 02:45:42;;;;;;;12.73;11.52;;;;;;;;;;5083451;28;20409;-81
2023/12/01 02:48:08;;;;;;;12.50;11.40;;;;;;;;;;5083634;28;20838;-81
2023/12/01 02:50:35;;;;;;;12.70;11.60;;;;;;;;;;5084020;28;20387;-81
2023/12/01 02:53:01;;;;;;;13.03;11.83;;;;;;;;;;5083924;28;20942;-81
2023/12/01 02:55:27;;;;;;;14.00;12.70;;;;;;;;;;5083833;28;20463;-81
2023/12/01 02:57:54;;;;;;;13.57;12.38;;;;;;;;;;5083492;28;20419;-81
2023/12/01 03:00:22;;;;;;;13.18;11.98;;;;;;;;;;5083806;28;20372;-82
2023/12/01 03:02:51;;;;;;;13.70;12.30;;;;;;;;;;5083601;28;20431;-81
2023/12/01 03:05:18;;;;;;;13.82;12.52;;;;;;;;;;5083271;28;20381;-81
2023/12/01 03:07:44;;;;;;;12.85;11.65;;;;;;;;;;5077455;28;20389;-81
2023/12/01 03:10:10;;;;;;;13.30;12.10;;;;;;;;;;5063853;28;20393;-80
2023/12/01 03:12:36;;;;;;;13.13;11.88;;;;;;;;;;5063863;28;20409;-80
2023/12/01 03:15:04;;;;;;;14.18;12.23;;;;;;;;;;5063974;28;20389;-81
2023/12/01 03:17:31;;;;;;;13.18;11.98;;;;;;;;;;5063194;28;20370;-80
2023/12/01 03:19:58;;;;;;;12.80;11.70;;;;;;;;;;5063083;28;20384;-81
2023/12/01 03:22:24;;;;;;;13.30;12.02;;;;;;;;;;5062924;28;20390;-80
2023/12/01 03:24:50;;;;;;;12.90;11.77;;;;;;;;;;5045057;28;20388;-81
2023/12/01 03:27:16;;;;;;;12.50;11.30;;;;;;;;;;5063048;28;20515;-81
2023/12/01 03:29:42;;;;;;;12.98;11.68;;;;;;;;;;5063776;28;20705;-81
2023/12/01 03:32:09;;;;;;;12.85;11.65;;;;;;;;;;5081798;28;20434;-80
2023/12/01 03:34:35;;;;;;;12.80;11.67;;;;;;;;;;5082844;28;20426;-80
2023/12/01 03:37:02;;;;;;;12.40;11.40;;;;;;;;;;5082702;28;20388;-80
2023/12/01 03:39:28;;;;;;;12.68;11.48;;;;;;;;;;5082987;28;20364;-80
2023/12/01 03:41:54;;;;;;;13.13;11.90;;;;;;;;;;5082590;28;20873;-80
2023/12/01 03:44:20;;;;;;;13.65;12.35;;;;;;;;;;5083782;28;20384;-80
2023/12/01 03:46:47;;;;;;;12.82;11.63;;;;;;;;;;5082254;28;20411;-80
2023/12/01 03:49:13;;;;;;;13.57;12.23;;;;;;;;;;5082718;28;20800;-80
2023/12/01 03:51:42;;;;;;;12.82;11.63;;;;;;;;;;5082775;28;20442;-80
2023/12/01 03:54:08;;;;;;;12.48;11.38;;;;;;;;;;5082942;28;20395;-80
2023/12/01 03:56:36;;;;;;;11.98;10.88;;;;;;;;;;5083135;28;20410;-80
2023/12/01 03:59:03;;;;;;;11.87;10.87;;;;;;;;;;5083224;28;20463;-81
2023/12/01 04:01:29;;;;;;;11.80;10.70;;;;;;;;;;5083267;28;20379;-80
2023/12/01 04:03:56;;;;;;;12.40;11.23;;;;;;;;;;5083082;28;20380;-80
2023/12/01 04:06:22;;;;;;;12.82;11.63;;;;;;;;;;5082968;28;20749;-80
2023/12/01 04:08:53;;;;;;;11.68;10.68;;;;;;;;;;5083863;28;20384;-80
2023/12/01 04:11:19;;;;;;;11.98;10.95;;;;;;;;;;5083895;28;20404;-81
2023/12/01 04:13:45;;;;;;;12.98;11.55;;;;;;;;;;5083446;28;20387;-82
2023/12/01 04:16:11;;;;;;;12.10;11.00;;;;;;;;;;5083962;28;20384;-82
2023/12/01 04:18:38;;;;;;;12.50;11.30;;;;;;;;;;5083676;28;20437;-83
2023/12/01 04:21:08;;;;;;;13.13;11.90;;;;;;;;;;5083507;28;20443;-82
2023/12/01 04:23:34;;;;;;;12.57;11.38;;;;;;;;;;5083582;28;20896;-80
2023/12/01 04:26:01;;;;;;;12.77;11.57;;;;;;;;;;5084022;28;20451;-82
2023/12/01 04:28:27;;;;;;;12.50;11.40;;;;;;;;;;5083759;28;20784;-82
2023/12/01 04:30:53;;;;;;;12.82;11.52;;;;;;;;;;5083220;28;20473;-81
2023/12/01 04:33:19;;;;;;;12.75;11.55;;;;;;;;;;5083872;28;20371;-81
2023/12/01 04:35:45;;;;;;;12.23;11.13;;;;;;;;;;5083624;28;20382;-80
2023/12/01 04:38:11;;;;;;;13.00;11.80;;;;;;;;;;5083394;28;20780;-80
2023/12/01 04:40:37;;;;;;;11.50;10.43;;;;;;;;;;5083453;28;20371;-80
2023/12/01 04:43:03;;;;;;;11.80;10.70;;;;;;;;;;5083106;28;20408;-80
2023/12/01 04:45:33;;;;;;;12.10;11.00;;;;;;;;;;5083560;28;20916;-81
2023/12/01 04:47:59;;;;;;;11.82;10.63;;;;;;;;;;5082738;28;20404;-82
2023/12/01 04:50:26;;;;;;;12.00;10.90;;;;;;;;;;5084016;28;20372;-81
2023/12/01 04:52:56;;;;;;;12.10;10.93;;;;;;;;;;5082692;28;20770;-80
2023/12/01 04:55:29;;;;;;;12.53;11.33;;;;;;;;;;5082528;28;20384;-80
2023/12/01 04:57:55;;;;;;;12.10;10.95;;;;;;;;;;5082412;28;20368;-82
2023/12/01 05:00:22;;;;;;;13.30;12.00;;;;;;;;;;5082867;28;20463;-80
2023/12/01 05:02:48;;;;;;;10.80;9.90;;;;;;;;;;5082559;28;20447;-80
2023/12/01 05:05:15;;;;;;;11.95;10.85;;;;;;;;;;5082008;28;20379;-80
2023/12/01 05:07:41;;;;;;;11.02;10.05;;;;;;;;;;5082861;28;20387;-80
2023/12/01 05:10:14;;;;;;;11.52;10.52;;;;;;;;;;5074619;28;20393;-80
2023/12/01 05:12:40;;;;;;;11.37;10.27;;;;;;;;;;5062926;28;20421;-80
2023/12/01 05:15:15;;;;;;;12.63;11.43;;;;;;;;;;5062854;28;20385;-80
2023/12/01 05:17:41;;;;;;;12.48;11.35;;;;;;;;;;5061826;28;20503;-80
2023/12/01 05:20:15;;;;;;;12.93;11.63;;;;;;;;;;5062754;28;20384;-80
2023/12/01 05:22:41;;;;;;;11.82;10.73;;;;;;;;;;5062689;28;20456;-82
2023/12/01 05:25:13;;;;;;;12.63;11.43;;;;;;;;;;5073874;28;20383;-82
2023/12/01 05:27:39;;;;;;;12.80;11.60;;;;;;;;;;5082125;28;20737;-81
2023/12/01 05:30:06;;;;;;;13.00;11.77;;;;;;;;;;5083275;28;20444;-81
2023/12/01 05:32:32;;;;;;;13.60;12.30;;;;;;;;;;5060743;28;20443;-82
2023/12/01 05:34:58;;;;;;;12.13;10.98;;;;;;;;;;5080965;28;20467;-82
2023/12/01 05:37:24;;;;;;;12.77;11.48;;;;;;;;;;5079612;28;20877;-82
2023/12/01 05:39:50;;;;;;;12.93;11.63;;;;;;;;;;5081133;28;20380;-80
2023/12/01 05:42:16;;;;;;;12.10;10.98;;;;;;;;;;5080568;28;20881;-80
2023/12/01 05:44:45;;;;;;;12.23;10.93;;;;;;;;;;5082139;28;20406;-82
2023/12/01 05:47:11;;;;;;;12.90;11.60;;;;;;;;;;5081203;28;20893;-80
2023/12/01 05:49:37;;;;;;;12.40;11.20;;;;;;;;;;5081605;28;20395;-82
2023/12/01 05:52:03;;;;;;;12.45;11.27;;;;;;;;;;5081392;28;20481;-80
2023/12/01 05:54:29;;;;;;;12.48;11.27;;;;;;;;;;5081684;28;20379;-80
2023/12/01 05:56:55;;;;;;;12.65;11.45;;;;;;;;;;5081311;28;20363;-82
2023/12/01 05:59:21;;;;;;;12.50;11.20;;;;;;;;;;5083072;28;20372;-81
2023/12/01 06:01:47;;;;;;;12.25;11.05;;;;;;;;;;5085578;28;20387;-80
2023/12/01 06:04:14;;;;;;;11.25;10.25;;;;;;;;;;5086178;28;20447;-81
2023/12/01 06:06:40;;;;;;;11.88;10.73;;;;;;;;;;5085521;28;20410;-80
2023/12/01 06:09:15;;;;;;;11.98;10.88;;;;;;;;;;5083913;28;20386;-80
2023/12/01 06:11:42;;;;;;;12.10;11.00;;;;;;;;;;5085294;28;20415;-80
2023/12/01 06:14:08;;;;;;;11.13;10.10;;;;;;;;;;5083098;28;20413;-80
2023/12/01 06:16:34;;;;;;;10.98;9.95;;;;;;;;;;5082188;28;20444;-81
2023/12/01 06:19:00;;;;;;;11.32;10.32;;;;;;;;;;5084428;28;20375;-82
2023/12/01 06:21:26;;;;;;;11.57;10.40;;;;;;;;;;5085207;28;20772;-81
2023/12/01 06:23:52;;;;;;;11.75;10.65;;;;;;;;;;5084620;28;20478;-81
2023/12/01 06:26:18;;;;;;;11.35;10.27;;;;;;;;;;5084720;28;20402;-81
2023/12/01 06:28:44;;;;;;;11.55;10.55;;;;;;;;;;5085307;28;20462;-81
2023/12/01 06:31:10;;;;;;;11.45;10.43;;;;;;;;;;5085327;28;20949;-81
2023/12/01 06:33:37;;;;;;;12.20;11.10;;;;;;;;;;5084163;28;20410;-81
2023/12/01 06:36:03;;;;;;;12.90;11.68;;;;;;;;;;5083112;28;20382;-81
2023/12/01 06:38:29;;;;;;;12.65;11.38;;;;;;;;;;5083367;28;20377;-81
2023/12/01 06:40:55;;;;;;;12.80;11.60;;;;;;;;;;5084088;28;20459;-81
2023/12/01 06:43:21;;;;;;;13.20;12.00;;;;;;;;;;5083046;28;20391;-82
2023/12/01 06:45:47;;;;;;;12.55;11.25;;;;;;;;;;5083277;28;20459;-82
2023/12/01 06:48:13;;;;;;;12.60;11.30;;;;;;;;;;5083356;28;20379;-82
2023/12/01 06:50:39;;;;;;;12.00;10.85;;;;;;;;;;5082872;28;20379;-81
2023/12/01 06:53:06;;;;;;;12.88;11.57;;;;;;;;;;5082159;28;20906;-82
2023/12/01 06:55:32;;;;;;;14.10;12.57;;;;;;;;;;5081566;28;20382;-82
2023/12/01 06:57:58;;;;;;;12.07;10.88;;;;;;;;;;5081996;28;20403;-83
2023/12/01 07:02:56;;;;;;;12.90;11.60;;;;;;;;;;5082452;28;20387;-81
2023/12/01 07:05:22;;;;;;;13.85;12.45;;;;;;;;;;5083474;28;20440;-81
2023/12/01 07:07:48;;;;;;;13.73;12.30;;;;;;;;;;5078280;28;20382;-84
2023/12/01 07:10:15;;;;;;;12.63;11.27;;;;;;;;;;5082793;28;20384;-82
2023/12/01 07:12:41;;;;;;;12.80;11.48;;;;;;;;;;5084110;28;20403;-83
2023/12/01 07:15:11;;;;;;;11.45;10.45;;;;;;;;;;5082419;28;20830;-83
2023/12/01 07:17:38;;;;;;;11.85;10.65;;;;;;;;;;5081952;28;20379;-83
2023/12/01 07:20:13;;;;;;;12.63;11.35;;;;;;;;;;5083648;28;20384;-83
2023/12/01 07:22:39;;;;;;;13.43;12.13;;;;;;;;;;5083167;28;20783;-83
2023/12/01 07:25:10;;;;;;;18.97;14.40;;;;;;;;;;5084317;28;20415;-84
2023/12/01 07:27:36;;;;;;;12.52;11.30;;;;;;;;;;5082591;28;20379;-83
2023/12/01 07:30:02;;;;;;;13.55;12.25;;;;;;;;;;5082885;28;20380;-83
2023/12/01 07:32:28;;;;;;;15.13;13.52;;;;;;;;;;5083211;28;20403;-83
2023/12/01 07:34:54;;;;;;;15.27;13.70;;;;;;;;;;5082690;28;20380;-84
2023/12/01 07:37:20;;;;;;;12.95;11.68;;;;;;;;;;5083216;28;20742;-83
2023/12/01 07:39:46;;;;;;;12.63;11.43;;;;;;;;;;5082770;28;20741;-83
2023/12/01 07:42:12;;;;;;;12.65;11.40;;;;;;;;;;5083598;28;20462;-83
2023/12/01 07:44:38;;;;;;;16.63;13.35;;;;;;;;;;5083560;28;20467;-83
2023/12/01 07:47:08;;;;;;;13.45;12.05;;;;;;;;;;5083180;28;20407;-83
2023/12/01 07:49:34;;;;;;;12.52;11.32;;;;;;;;;;5082694;28;20409;-83
2023/12/01 07:52:02;;;;;;;12.35;11.15;;;;;;;;;;5082912;28;20814;-84
2023/12/01 07:54:28;;;;;;;11.40;10.30;;;;;;;;;;5083781;28;20387;-81
2023/12/01 07:56:54;;;;;;;11.75;10.65;;;;;;;;;;5083695;28;20391;-83
2023/12/01 07:59:21;;;;;;;13.07;11.68;;;;;;;;;;5083452;28;20384;-83
2023/12/01 08:01:47;;;;;;;15.13;12.63;;;;;;;;;;5083000;28;20436;-84
2023/12/01 08:04:13;;;;;;;19.20;14.48;;;;;;;;;;5083293;28;20798;-83
2023/12/01 08:06:40;;;;;;;15.40;13.45;;;;;;;;;;5082301;28;20392;-84
2023/12/01 08:09:05;;;;;;;17.80;14.05;;;;;;;;;;5083820;28;20396;-81
2023/12/01 08:11:31;;;;;;;14.38;12.88;;;;;;;;;;5082990;28;20418;-81
2023/12/01 08:13:57;;;;;;;14.93;13.33;;;;;;;;;;5091122;28;20463;-84
2023/12/01 08:16:23;;;;;;;16.20;13.70;;;;;;;;;;5102228;28;20381;-83
2023/12/01 08:18:49;;;;;;;13.40;12.00;;;;;;;;;;5102417;28;20843;-84
2023/12/01 08:21:15;;;;;;;16.20;13.75;;;;;;;;;;5101841;28;20436;-83
2023/12/01 08:23:41;;;;;;;17.85;14.20;;;;;;;;;;5101780;28;20848;-83
2023/12/01 08:26:09;;;;;;;12.73;11.38;;;;;;;;;;5102103;28;20386;-83
2023/12/01 08:28:35;;;;;;;24.25;16.42;;;;;;;;;;5101655;28;20406;-83
2023/12/01 08:31:03;;;;;;;12.77;11.57;;;;;;;;;;5102100;28;20463;-84
2023/12/01 08:33:29;;;;;;;12.40;11.20;;;;;;;;;;5101441;28;20382;-83
2023/12/01 08:35:55;;;;;;;12.07;10.87;;;;;;;;;;5100484;28;20382;-83
2023/12/01 08:38:21;;;;;;;13.23;11.93;;;;;;;;;;5100540;28;20378;-83
2023/12/01 08:40:47;;;;;;;12.20;11.00;;;;;;;;;;5100058;28;20412;-83
2023/12/01 08:43:13;;;;;;;11.85;10.75;;;;;;;;;;5101551;28;20856;-83
2023/12/01 08:45:39;;;;;;;13.00;11.75;;;;;;;;;;5100998;28;20387;-81
2023/12/01 08:48:05;;;;;;;15.13;13.57;;;;;;;;;;5100103;28;20414;-83
2023/12/01 08:50:31;;;;;;;13.05;11.75;;;;;;;;;;5100429;28;20848;-80
2023/12/01 08:52:57;;;;;;;12.63;11.43;;;;;;;;;;5100247;28;20394;-83
2023/12/01 08:55:23;;;;;;;12.15;11.02;;;;;;;;;;5099417;28;21133;-83
2023/12/01 08:57:49;;;;;;;12.57;11.27;;;;;;;;;;5100879;28;20381;-82
2023/12/01 09:00:20;;;;;;;11.83;10.73;;;;;;;;;;5101370;28;20370;-84
2023/12/01 09:02:47;;;;;;;11.63;10.53;;;;;;;;;;5101237;28;20410;-83
2023/12/01 09:05:13;;;;;;;12.13;10.90;;;;;;;;;;5084896;28;20378;-83
2023/12/01 09:07:39;;;;;;;10.65;9.65;;;;;;;;;;5080431;28;20390;-83
2023/12/01 09:10:05;;;;;;;11.18;10.13;;;;;;;;;;5081051;28;20437;-84
2023/12/01 09:12:31;;;;;;;11.82;10.73;;;;;;;;;;5081859;28;20399;-84
2023/12/01 09:14:57;;;;;;;10.52;9.55;;;;;;;;;;5082044;28;20380;-84
2023/12/01 09:17:23;;;;;;;11.52;10.43;;;;;;;;;;5081424;28;20422;-84
2023/12/01 09:19:49;;;;;;;12.70;11.32;;;;;;;;;;5077392;28;20387;-79
2023/12/01 09:22:16;;;;;;;11.43;10.43;;;;;;;;;;5077826;28;20395;-82
2023/12/01 09:24:42;;;;;;;11.07;10.00;;;;;;;;;;5076848;28;20502;-82
2023/12/01 09:27:08;;;;;;;12.35;11.18;;;;;;;;;;5080479;28;20403;-84
2023/12/01 09:29:34;;;;;;;11.98;10.82;;;;;;;;;;5080294;28;20857;-84
2023/12/01 09:32:00;;;;;;;12.70;11.50;;;;;;;;;;5080497;28;20403;-85
2023/12/01 09:34:27;;;;;;;11.05;10.05;;;;;;;;;;5080922;28;20376;-85
2023/12/01 09:36:53;;;;;;;11.25;10.27;;;;;;;;;;5080491;28;20396;-84
2023/12/01 09:39:19;;;;;;;11.85;10.60;;;;;;;;;;5059701;28;20388;-84
2023/12/01 09:41:45;;;;;;;11.65;10.60;;;;;;;;;;5078983;28;20414;-84
2023/12/01 09:44:11;;;;;;;11.00;10.00;;;;;;;;;;5079946;28;20379;-84
2023/12/01 09:46:37;;;;;;;13.95;12.63;;;;;;;;;;5078497;28;20414;-83
2023/12/01 09:49:07;;;;;;;12.05;10.82;;;;;;;;;;5080745;28;20787;-84
2023/12/01 09:51:36;;;;;;;12.82;11.63;;;;;;;;;;5080695;28;20410;-84
2023/12/01 09:54:02;;;;;;;14.30;12.75;;;;;;;;;;5079299;28;20425;-83
2023/12/01 09:56:31;;;;;;;12.63;11.35;;;;;;;;;;5078958;28;20372;-84
2023/12/01 09:58:57;;;;;;;12.93;11.60;;;;;;;;;;5078964;28;20387;-83
2023/12/01 10:01:27;;;;;;;12.40;11.15;;;;;;;;;;5078558;28;20387;-83
2023/12/01 10:03:53;;;;;;;13.57;11.60;;;;;;;;;;5078500;28;20384;-84
2023/12/01 10:06:19;;;;;;;11.65;10.45;;;;;;;;;;5078152;28;20390;-83
2023/12/01 10:08:48;;;;;;;13.02;11.82;;;;;;;;;;5079447;28;20403;-83
2023/12/01 10:11:19;;;;;;;12.68;11.35;;;;;;;;;;5079431;28;20418;-83
2023/12/01 10:13:45;;;;;;;10.95;9.88;;;;;;;;;;5079185;28;20925;-83
2023/12/01 10:16:12;;;;;;;11.13;10.02;;;;;;;;;;5079418;28;20376;-83
2023/12/01 10:18:38;;;;;;;11.25;10.25;;;;;;;;;;5080090;28;20383;-84
2023/12/01 10:21:04;;;;;;;11.85;10.77;;;;;;;;;;5083024;28;20387;-83
2023/12/01 10:23:32;;;;;;;11.07;10.02;;;;;;;;;;5084036;28;20444;-83
2023/12/01 10:25:59;;;;;;;10.57;9.57;;;;;;;;;;5084828;28;20380;-83
2023/12/01 10:28:27;;;;;;;10.77;9.77;;;;;;;;;;5083358;28;20380;-84
2023/12/01 10:30:57;;;;;;;11.25;10.15;;;;;;;;;;5083437;28;20392;-83
2023/12/01 10:33:24;;;;;;;10.85;9.85;;;;;;;;;;5083161;28;20379;-84
2023/12/01 10:36:01;;;;;;;10.35;9.45;;;;;;;;;;5084132;28;20774;-83
2023/12/01 10:38:27;;;;;;;10.45;9.45;;;;;;;;;;5082992;28;20376;-83
2023/12/01 10:40:56;;;;;;;11.48;10.38;;;;;;;;;;5082877;28;20388;-83
2023/12/01 10:43:22;;;;;;;10.80;9.70;;;;;;;;;;5081036;28;20447;-83
2023/12/01 10:45:49;;;;;;;10.87;9.57;;;;;;;;;;5085359;28;21193;-83
2023/12/01 10:48:19;;;;;;;10.50;9.50;;;;;;;;;;5086393;28;20387;-84
2023/12/01 10:50:46;;;;;;;10.75;9.68;;;;;;;;;;5084134;28;20387;-83
2023/12/01 10:53:13;;;;;;;10.93;9.82;;;;;;;;;;5084737;28;20892;-83
2023/12/01 10:55:39;;;;;;;9.93;9.00;;;;;;;;;;5084320;28;20433;-83
2023/12/01 10:58:06;;;;;;;11.40;10.13;;;;;;;;;;5085139;28;20464;-83
2023/12/01 11:00:32;;;;;;;11.48;10.38;;;;;;;;;;5070004;28;20378;-83
2023/12/01 11:03:03;;;;;;;11.18;10.00;;;;;;;;;;5064374;28;20423;-83
2023/12/01 11:05:31;;;;;;;11.13;10.07;;;;;;;;;;5064904;28;20468;-84
2023/12/01 11:07:57;;;;;;;10.98;9.88;;;;;;;;;;5063462;28;20746;-83
2023/12/01 11:10:38;;;;;;;12.02;10.18;;;;;;;;;;5064939;28;20389;-84
2023/12/01 11:13:19;;;;;;;10.77;9.77;;;;;;;;;;5067042;28;20405;-84
2023/12/01 11:15:49;;;;;;;11.90;10.45;;;;;;;;;;5066886;28;20448;-84
2023/12/01 11:18:16;;;;;;;17.50;13.10;;;;;;;;;;5093295;28;20382;-84
2023/12/01 11:20:43;;;;;;;22.42;16.23;;;;;;;;;;5107258;28;20378;-83
2023/12/01 11:23:12;;;;;;;13.35;12.05;;;;;;;;;;5107713;28;20405;-83
2023/12/01 11:25:48;;;;;;;10.93;9.93;;;;;;;;;;5107412;28;20415;-84
2023/12/01 11:28:20;;;;;;;9.27;8.48;;;;;;;;;;5105618;28;20370;-83
2023/12/01 11:31:13;;;;;;;8.60;7.90;;;;;;;;;;5104855;28;20427;-83
2023/12/01 11:33:40;;;;;;;8.10;7.38;;;;;;;;;;5100074;28;20430;-84
2023/12/01 11:36:19;;;;;;;8.07;7.38;;;;;;;;;;5064177;28;20392;-82
2023/12/01 11:39:08;;;;;;;7.10;6.50;;;;;;;;;;5079812;28;20398;-82
2023/12/01 11:41:34;;;;;;;6.53;6.03;;;;;;;;;;5082452;28;20391;-83
2023/12/01 11:44:07;;;;;;;6.50;6.00;;;;;;;;;;5063908;28;20376;-81
2023/12/01 11:46:33;;;;;;;6.55;5.95;;;;;;;;;;5083167;28;20427;-83
2023/12/01 11:48:59;;;;;;;6.70;6.10;;;;;;;;;;5081555;28;20399;-82
2023/12/01 11:51:26;;;;;;;5.80;5.40;;;;;;;;;;5080228;28;20427;-83
2023/12/01 11:53:56;;;;;;;6.03;5.53;;;;;;;;;;5079040;28;20427;-83
2023/12/01 11:56:24;;;;;;;6.50;5.90;;;;;;;;;;5079827;28;20437;-82
2023/12/01 11:58:51;;;;;;;5.97;5.47;;;;;;;;;;5080415;28;20406;-82
2023/12/01 12:01:17;;;;;;;6.18;5.60;;;;;;;;;;5080328;28;20411;-82
2023/12/01 12:03:43;;;;;;;5.93;5.45;;;;;;;;;;5080891;28;20380;-82
2023/12/01 12:06:11;;;;;;;6.60;6.00;;;;;;;;;;5080731;28;20987;-82
2023/12/01 12:08:38;;;;;;;6.73;6.13;;;;;;;;;;5078605;28;20429;-82
2023/12/01 12:11:06;;;;;;;6.60;6.10;;;;;;;;;;5079185;28;20388;-82
2023/12/01 12:13:32;;;;;;;7.43;6.72;;;;;;;;;;5079518;28;20936;-79
2023/12/01 12:15:59;;;;;;;7.07;6.45;;;;;;;;;;5079940;28;20387;-82
2023/12/01 12:18:27;;;;;;;6.70;6.20;;;;;;;;;;5080431;28;20374;-79
2023/12/01 12:20:53;;;;;;;6.10;5.53;;;;;;;;;;5080195;28;20412;-79
2023/12/01 12:23:19;;;;;;;5.45;5.05;;;;;;;;;;5079882;28;20745;-79
2023/12/01 12:25:47;;;;;;;5.30;4.90;;;;;;;;;;5080138;28;20372;-82
2023/12/01 12:28:13;;;;;;;5.10;4.70;;;;;;;;;;5079377;28;20850;-82
2023/12/01 12:30:39;;;;;;;5.20;4.80;;;;;;;;;;5079733;28;20395;-82
2023/12/01 12:33:06;;;;;;;5.55;5.10;;;;;;;;;;5078826;28;20404;-82
2023/12/01 12:35:32;;;;;;;5.03;4.63;;;;;;;;;;5079014;28;20379;-82
2023/12/01 12:37:58;;;;;;;5.30;4.85;;;;;;;;;;5079316;28;20415;-82
2023/12/01 12:40:24;;;;;;;5.15;4.75;;;;;;;;;;5076956;28;20388;-82
2023/12/01 12:42:54;;;;;;;4.97;4.57;;;;;;;;;;5078131;28;20522;-82
2023/12/01 12:45:20;;;;;;;4.50;4.10;;;;;;;;;;5079804;28;20420;-82
2023/12/01 12:47:46;;;;;;;4.10;3.80;;;;;;;;;;5079350;28;20421;-82
2023/12/01 12:50:17;;;;;;;4.20;3.80;;;;;;;;;;5079826;28;20384;-82
2023/12/01 12:52:43;;;;;;;4.45;4.10;;;;;;;;;;5072267;28;20421;-83
2023/12/01 12:55:11;;;;;;;4.13;3.80;;;;;;;;;;5059040;28;20829;-82
2023/12/01 12:57:37;;;;;;;4.47;4.13;;;;;;;;;;5059391;28;20377;-83
2023/12/01 13:00:08;;;;;;;7.05;6.45;;;;;;;;;;5058881;28;20378;-83
2023/12/01 13:02:34;;;;;;;7.15;5.95;;;;;;;;;;5059673;28;20377;-83
2023/12/01 13:05:01;;;;;;;4.70;4.30;;;;;;;;;;5058281;28;20736;-80
2023/12/01 13:07:27;;;;;;;6.25;5.70;;;;;;;;;;5069445;28;20410;-83
2023/12/01 13:09:53;;;;;;;5.20;4.80;;;;;;;;;;5078955;28;20437;-83
2023/12/01 13:12:19;;;;;;;4.97;4.57;;;;;;;;;;5079039;28;20742;-83
2023/12/01 13:14:46;;;;;;;4.75;4.40;;;;;;;;;;5078372;28;20386;-83
2023/12/01 13:17:13;;;;;;;9.60;8.80;;;;;;;;;;5079151;28;20414;-83
2023/12/01 13:19:40;;;;;;;6.07;5.57;;;;;;;;;;5080018;28;20470;-83
2023/12/01 13:22:06;;;;;;;7.28;6.68;;;;;;;;;;5078792;28;20382;-83
2023/12/01 13:24:32;;;;;;;8.63;7.93;;;;;;;;;;5079401;28;20376;-83
2023/12/01 13:26:58;;;;;;;7.85;7.25;;;;;;;;;;5079686;28;20513;-83
2023/12/01 13:29:24;;;;;;;7.13;6.63;;;;;;;;;;5078908;28;20885;-83
2023/12/01 13:31:50;;;;;;;6.30;5.80;;;;;;;;;;5079060;28;20445;-83
2023/12/01 13:34:16;;;;;;;5.72;5.32;;;;;;;;;;5078167;28;20779;-83
2023/12/01 13:36:44;;;;;;;5.63;5.22;;;;;;;;;;5079425;28;20395;-83
2023/12/01 13:39:10;;;;;;;4.90;4.60;;;;;;;;;;5079062;28;20375;-83
2023/12/01 13:41:36;;;;;;;5.63;5.22;;;;;;;;;;5079161;28;20380;-83
2023/12/01 13:44:02;;;;;;;5.50;5.10;;;;;;;;;;5079206;28;20394;-81
2023/12/01 13:46:28;;;;;;;5.38;4.97;;;;;;;;;;5079705;28;20407;-81
2023/12/01 13:48:54;;;;;;;5.10;4.70;;;;;;;;;;5079271;28;20395;-83
2023/12/01 13:51:20;;;;;;;4.82;4.43;;;;;;;;;;5079568;28;20466;-83
2023/12/01 13:53:46;;;;;;;5.00;4.60;;;;;;;;;;5079531;28;20436;-83
2023/12/01 13:56:12;;;;;;;5.00;4.60;;;;;;;;;;5079953;28;20445;-83
2023/12/01 13:58:41;;;;;;;4.80;4.43;;;;;;;;;;5079179;28;20372;-83
2023/12/01 14:01:07;;;;;;;4.90;4.53;;;;;;;;;;5079317;28;20864;-83
2023/12/01 14:03:33;;;;;;;4.80;4.40;;;;;;;;;;5077152;28;20419;-83
2023/12/01 14:05:59;;;;;;;4.95;4.55;;;;;;;;;;5069482;28;20415;-83
2023/12/01 14:08:25;;;;;;;5.10;4.70;;;;;;;;;;5071548;28;20384;-83
2023/12/01 14:10:52;;;;;;;4.97;4.53;;;;;;;;;;5062420;28;20807;-83
2023/12/01 14:13:18;;;;;;;4.40;4.05;;;;;;;;;;5074670;28;20448;-83
2023/12/01 14:15:44;;;;;;;4.32;4.03;;;;;;;;;;5078882;28;20392;-83
2023/12/01 14:18:10;;;;;;;4.23;3.93;;;;;;;;;;5078722;28;20382;-83
2023/12/01 14:20:38;;;;;;;4.95;4.55;;;;;;;;;;5080627;28;20930;-83
2023/12/01 14:23:04;;;;;;;5.60;5.10;;;;;;;;;;5101272;28;20433;-83
2023/12/01 14:25:30;;;;;;;4.80;4.40;;;;;;;;;;5102633;28;20374;-83